Time;durP1;ratioP1;P1;durP2;ratioP2;P2;SDS_P1;SDS_P2;PMS_P1;PMS_P2;Temp;Humidity;BMP_temperature;BMP_pressure;BME280_temperature;BME280_humidity;BME280_pressure;Samples;Min_cycle;Max_cycle;Signal;HPM_P1;HPM_P2
2023/10/21 00:00:36;;;;;;;1.6;1.2;;;;;;;;;;;;;
2023/10/21 00:03:02;;;;;;;1;0.9;;;;;;;;;;;;;
2023/10/21 00:05:27;;;;;;;1.5;1.4;;;;;;;;;;;;;
2023/10/21 00:07:53;;;;;;;1.6;1.5;;;;;;;;;;;;;
2023/10/21 00:10:18;;;;;;;2.2;1.4;;;;;;;;;;;;;
2023/10/21 00:12:45;;;;;;;1.7;1.6;;;;;;;;;;;;;
2023/10/21 00:15:10;;;;;;;1.6;1.2;;;;;;;;;;;;;
2023/10/21 00:17:40;;;;;;;1;1;;;;;;;;;;;;;
2023/10/21 00:20:09;;;;;;;0.8;0.8;;;;;;;;;;;;;
2023/10/21 00:22:35;;;;;;;0.6;0.6;;;;;;;;;;;;;
2023/10/21 00:25:01;;;;;;;0.5;0.4;;;;;;;;;;;;;
2023/10/21 00:27:25;;;;;;;0.3;0.3;;;;;;;;;;;;;
2023/10/21 00:29:53;;;;;;;0.3;0.3;;;;;;;;;;;;;
2023/10/21 00:32:18;;;;;;;0.3;0.3;;;;;;;;;;;;;
2023/10/21 00:34:44;;;;;;;0.4;0.4;;;;;;;;;;;;;
2023/10/21 00:37:09;;;;;;;0.9;0.5;;;;;;;;;;;;;
2023/10/21 00:39:35;;;;;;;0.8;0.5;;;;;;;;;;;;;
2023/10/21 00:41:59;;;;;;;0.5;0.5;;;;;;;;;;;;;
2023/10/21 00:44:26;;;;;;;0.4;0.3;;;;;;;;;;;;;
2023/10/21 00:46:51;;;;;;;0.5;0.2;;;;;;;;;;;;;
2023/10/21 00:49:19;;;;;;;0.5;0.5;;;;;;;;;;;;;
2023/10/21 00:51:45;;;;;;;0.5;0.3;;;;;;;;;;;;;
2023/10/21 00:54:10;;;;;;;0.3;0.3;;;;;;;;;;;;;
2023/10/21 00:56:36;;;;;;;0.3;0.3;;;;;;;;;;;;;
2023/10/21 00:59:04;;;;;;;2;0.5;;;;;;;;;;;;;
2023/10/21 01:01:29;;;;;;;0.7;0.4;;;;;;;;;;;;;
2023/10/21 01:03:54;;;;;;;0.4;0.4;;;;;;;;;;;;;
2023/10/21 01:06:19;;;;;;;0.5;0.5;;;;;;;;;;;;;
2023/10/21 01:08:46;;;;;;;0.4;0.4;;;;;;;;;;;;;
2023/10/21 01:11:11;;;;;;;0.3;0.3;;;;;;;;;;;;;
2023/10/21 01:13:39;;;;;;;1;0.4;;;;;;;;;;;;;
2023/10/21 01:16:04;;;;;;;0.3;0.3;;;;;;;;;;;;;
2023/10/21 01:18:33;;;;;;;0.3;0.3;;;;;;;;;;;;;
2023/10/21 01:20:54;;;;;;;0.4;0.4;;;;;;;;;;;;;
2023/10/21 01:23:20;;;;;;;0.4;0.4;;;;;;;;;;;;;
2023/10/21 01:25:45;;;;;;;0.4;0.4;;;;;;;;;;;;;
2023/10/21 01:28:12;;;;;;;0.5;0.4;;;;;;;;;;;;;
2023/10/21 01:30:37;;;;;;;0.3;0.3;;;;;;;;;;;;;
2023/10/21 01:33:04;;;;;;;0.4;0.4;;;;;;;;;;;;;
2023/10/21 01:35:29;;;;;;;0.4;0.4;;;;;;;;;;;;;
2023/10/21 01:37:56;;;;;;;0.5;0.4;;;;;;;;;;;;;
2023/10/21 01:40:21;;;;;;;0.3;0.3;;;;;;;;;;;;;
2023/10/21 01:42:46;;;;;;;0.3;0.3;;;;;;;;;;;;;
2023/10/21 01:45:11;;;;;;;0.4;0.3;;;;;;;;;;;;;
2023/10/21 01:47:38;;;;;;;0.3;0.3;;;;;;;;;;;;;
2023/10/21 01:50:03;;;;;;;1.2;0.6;;;;;;;;;;;;;
2023/10/21 01:52:32;;;;;;;0.8;0.6;;;;;;;;;;;;;
2023/10/21 01:54:57;;;;;;;0.4;0.4;;;;;;;;;;;;;
2023/10/21 01:57:23;;;;;;;0.4;0.4;;;;;;;;;;;;;
2023/10/21 01:59:49;;;;;;;0.6;0.6;;;;;;;;;;;;;
2023/10/21 02:02:16;;;;;;;0.5;0.5;;;;;;;;;;;;;
2023/10/21 02:04:41;;;;;;;1;0.7;;;;;;;;;;;;;
2023/10/21 02:07:09;;;;;;;0.5;0.5;;;;;;;;;;;;;
2023/10/21 02:09:34;;;;;;;0.6;0.6;;;;;;;;;;;;;
2023/10/21 02:11:59;;;;;;;0.6;0.6;;;;;;;;;;;;;
2023/10/21 02:14:24;;;;;;;0.9;0.4;;;;;;;;;;;;;
2023/10/21 02:16:50;;;;;;;0.6;0.6;;;;;;;;;;;;;
2023/10/21 02:19:15;;;;;;;1.1;0.7;;;;;;;;;;;;;
2023/10/21 02:21:41;;;;;;;0.5;0.4;;;;;;;;;;;;;
2023/10/21 02:24:06;;;;;;;0.6;0.6;;;;;;;;;;;;;
2023/10/21 02:26:32;;;;;;;0.8;0.6;;;;;;;;;;;;;
2023/10/21 02:28:58;;;;;;;1.2;0.7;;;;;;;;;;;;;
2023/10/21 02:31:22;;;;;;;1.1;0.9;;;;;;;;;;;;;
2023/10/21 02:33:48;;;;;;;0.9;0.9;;;;;;;;;;;;;
2023/10/21 02:36:13;;;;;;;1.2;0.9;;;;;;;;;;;;;
2023/10/21 02:38:38;;;;;;;0.8;0.8;;;;;;;;;;;;;
2023/10/21 02:41:03;;;;;;;1.2;1;;;;;;;;;;;;;
2023/10/21 02:43:32;;;;;;;1;0.5;;;;;;;;;;;;;
2023/10/21 02:45:57;;;;;;;0.8;0.8;;;;;;;;;;;;;
2023/10/21 02:48:23;;;;;;;0.7;0.7;;;;;;;;;;;;;
2023/10/21 02:50:48;;;;;;;0.8;0.8;;;;;;;;;;;;;
2023/10/21 02:53:14;;;;;;;0.8;0.8;;;;;;;;;;;;;
2023/10/21 02:55:39;;;;;;;0.9;0.8;;;;;;;;;;;;;
2023/10/21 02:58:05;;;;;;;1;1;;;;;;;;;;;;;
2023/10/21 03:00:31;;;;;;;0.6;0.6;;;;;;;;;;;;;
2023/10/21 03:02:59;;;;;;;0.8;0.6;;;;;;;;;;;;;
2023/10/21 03:05:23;;;;;;;0.6;0.6;;;;;;;;;;;;;
2023/10/21 03:07:50;;;;;;;0.6;0.6;;;;;;;;;;;;;
2023/10/21 03:10:15;;;;;;;0.8;0.7;;;;;;;;;;;;;
2023/10/21 03:12:44;;;;;;;0.6;0.6;;;;;;;;;;;;;
2023/10/21 03:15:13;;;;;;;0.6;0.6;;;;;;;;;;;;;
2023/10/21 03:17:38;;;;;;;0.9;0.6;;;;;;;;;;;;;
2023/10/21 03:20:06;;;;;;;0.5;0.5;;;;;;;;;;;;;
2023/10/21 03:22:30;;;;;;;0.5;0.5;;;;;;;;;;;;;
2023/10/21 03:24:56;;;;;;;0.7;0.7;;;;;;;;;;;;;
2023/10/21 03:27:21;;;;;;;0.6;0.6;;;;;;;;;;;;;
2023/10/21 03:29:46;;;;;;;1.6;0.8;;;;;;;;;;;;;
2023/10/21 03:32:12;;;;;;;0.6;0.6;;;;;;;;;;;;;
2023/10/21 03:34:39;;;;;;;0.7;0.6;;;;;;;;;;;;;
2023/10/21 03:37:04;;;;;;;0.8;0.7;;;;;;;;;;;;;
2023/10/21 03:39:31;;;;;;;0.7;0.7;;;;;;;;;;;;;
2023/10/21 03:41:55;;;;;;;0.6;0.6;;;;;;;;;;;;;
2023/10/21 03:44:22;;;;;;;0.6;0.6;;;;;;;;;;;;;
2023/10/21 03:46:47;;;;;;;0.7;0.5;;;;;;;;;;;;;
2023/10/21 03:49:14;;;;;;;0.5;0.5;;;;;;;;;;;;;
2023/10/21 03:51:40;;;;;;;0.8;0.5;;;;;;;;;;;;;
2023/10/21 03:54:04;;;;;;;0.5;0.5;;;;;;;;;;;;;
2023/10/21 03:56:30;;;;;;;0.9;0.6;;;;;;;;;;;;;
2023/10/21 03:58:55;;;;;;;0.7;0.7;;;;;;;;;;;;;
2023/10/21 04:02:39;;;;;;;1;0.8;;;;;;;10.98;92.98828;919.0784;;;;
2023/10/21 04:05:06;;;;;;;0.8;0.7;;;;;;;10.92;93.50195;919.0566;;;;
2023/10/21 04:07:29;;;;;;;1.7;1.1;;;;;;;10.96;93.29297;919.1721;;;;
2023/10/21 04:09:57;;;;;;;0.8;0.8;;;;;;;10.89;93.75781;919.1347;;;;
2023/10/21 04:12:23;;;;;;;0.6;0.6;;;;;;;10.69;95.38184;919.2653;;;;
2023/10/21 04:14:52;;;;;;;0.9;0.9;;;;;;;10.57;96.60059;919.2238;;;;
2023/10/21 04:17:18;;;;;;;1.6;1.5;;;;;;;10.47;97.21777;919.3278;;;;
2023/10/21 04:19:47;;;;;;;1.2;1.1;;;;;;;10.51;97.10254;919.3714;;;;
2023/10/21 04:22:12;;;;;;;0.7;0.7;;;;;;;10.57;96.90918;919.3567;;;;
2023/10/21 04:24:36;;;;;;;0.7;0.7;;;;;;;10.66;96.36914;919.3041;;;;
2023/10/21 04:27:04;;;;;;;0.7;0.7;;;;;;;10.74;94.48047;919.3708;;;;
2023/10/21 04:29:32;;;;;;;0.6;0.6;;;;;;;10.64;94.61621;919.3858;;;;
2023/10/21 04:31:58;;;;;;;0.9;0.6;;;;;;;10.52;95.20703;919.4152;;;;
2023/10/21 04:34:22;;;;;;;0.9;0.8;;;;;;;10.45;95.95801;919.4285;;;;
2023/10/21 04:36:52;;;;;;;0.7;0.5;;;;;;;10.46;95.72949;919.5198;;;;
2023/10/21 04:39:17;;;;;;;1.1;0.7;;;;;;;10.43;96.1709;919.4799;;;;
2023/10/21 04:41:42;;;;;;;0.8;0.7;;;;;;;10.43;96.13672;919.4965;;;;
2023/10/21 04:44:08;;;;;;;1.9;1;;;;;;;10.44;96.15918;919.5616;;;;
2023/10/21 04:46:37;;;;;;;2.3;1.8;;;;;;;10.46;96.10645;919.5253;;;;
2023/10/21 04:49:03;;;;;;;2.7;1.7;;;;;;;10.48;95.65625;919.5433;;;;
2023/10/21 04:51:30;;;;;;;2.2;1.6;;;;;;;10.5;95.38574;919.6256;;;;
2023/10/21 04:53:55;;;;;;;2.8;1.4;;;;;;;10.5;95.3877;919.6446;;;;
2023/10/21 04:56:24;;;;;;;1.2;1.1;;;;;;;10.57;94.89941;919.6463;;;;
2023/10/21 04:58:49;;;;;;;1.6;1.3;;;;;;;10.62;94.29297;919.7436;;;;
2023/10/21 05:01:16;;;;;;;23.2;10.9;;;;;;;10.55;93.50195;919.7629;;;;
2023/10/21 05:03:41;;;;;;;7.3;3.7;;;;;;;10.47;93.91895;919.755;;;;
2023/10/21 05:06:07;;;;;;;2.9;1.5;;;;;;;10.34;94.67676;919.8538;;;;
2023/10/21 05:08:33;;;;;;;1.6;1.4;;;;;;;10.27;95.61035;919.9163;;;;
2023/10/21 05:11:02;;;;;;;1.2;1.1;;;;;;;10.23;96.88965;919.8708;;;;
2023/10/21 05:13:31;;;;;;;2.7;2;;;;;;;10.24;96.16309;919.834;;;;
2023/10/21 05:15:56;;;;;;;1.3;1.2;;;;;;;10.28;95.93164;919.9122;;;;
2023/10/21 05:18:23;;;;;;;1.3;0.9;;;;;;;10.21;96.64551;920.0109;;;;
2023/10/21 05:20:48;;;;;;;1.8;1.1;;;;;;;10.18;96.41113;920.0684;;;;
2023/10/21 05:23:19;;;;;;;1.1;0.7;;;;;;;10.17;96.48926;920.0289;;;;
2023/10/21 05:25:47;;;;;;;0.7;0.6;;;;;;;10.16;96.81641;920.076;;;;
2023/10/21 05:28:12;;;;;;;1.3;1.2;;;;;;;10.13;96.70703;920.1609;;;;
2023/10/21 05:30:43;;;;;;;1.4;1.1;;;;;;;10.09;96.48242;920.1122;;;;
2023/10/21 05:33:10;;;;;;;1.2;1.1;;;;;;;10.08;95.06445;920.2263;;;;
2023/10/21 05:35:35;;;;;;;1.4;1.2;;;;;;;10.03;94.28027;920.2969;;;;
2023/10/21 05:38:03;;;;;;;2.5;1.1;;;;;;;9.98;94.11816;920.3669;;;;
2023/10/21 05:40:28;;;;;;;1.2;1.1;;;;;;;10.02;93.70801;920.4244;;;;
2023/10/21 05:42:55;;;;;;;2.9;1.2;;;;;;;9.96;95.58594;920.5063;;;;
2023/10/21 05:45:22;;;;;;;1.2;1.1;;;;;;;9.92;95.75977;920.5673;;;;
2023/10/21 05:47:49;;;;;;;1.3;1.2;;;;;;;9.93;95.92188;920.6754;;;;
2023/10/21 05:50:16;;;;;;;2.4;1.1;;;;;;;10.01;95.70215;920.7012;;;;
2023/10/21 05:52:40;;;;;;;1.2;1;;;;;;;10.07;95.79395;920.6884;;;;
2023/10/21 05:55:07;;;;;;;1.4;1.2;;;;;;;10.1;95.66309;920.7172;;;;
2023/10/21 05:57:32;;;;;;;2.6;2.4;;;;;;;10.15;95.13867;920.7791;;;;
2023/10/21 05:59:59;;;;;;;1.8;1.7;;;;;;;10.16;95.09375;920.8395;;;;
2023/10/21 06:02:24;;;;;;;4.1;1.7;;;;;;;10.18;94.37891;920.8535;;;;
2023/10/21 06:04:53;;;;;;;2.5;1.7;;;;;;;10.09;95.50195;920.8956;;;;
2023/10/21 06:07:18;;;;;;;2.6;1.6;;;;;;;10.11;96.30371;920.9327;;;;
2023/10/21 06:09:44;;;;;;;3.3;1.8;;;;;;;10.14;96.28711;921.0012;;;;
2023/10/21 06:12:10;;;;;;;2.5;1.7;;;;;;;10.16;96.24805;921.0715;;;;
2023/10/21 06:14:38;;;;;;;4.7;3;;;;;;;10.26;95.75391;920.9855;;;;
2023/10/21 06:17:10;;;;;;;4.4;2.6;;;;;;;10.31;95.43555;921.0284;;;;
2023/10/21 06:19:43;;;;;;;6.7;2.9;;;;;;;10.32;94.85742;921.1195;;;;
2023/10/21 06:22:12;;;;;;;2.7;2.3;;;;;;;10.26;94.83008;921.2408;;;;
2023/10/21 06:24:36;;;;;;;3.3;2.5;;;;;;;10.25;94.65723;921.3285;;;;
2023/10/21 06:27:04;;;;;;;3.7;2.6;;;;;;;10.19;94.58789;921.355;;;;
2023/10/21 06:29:27;;;;;;;2.3;2.1;;;;;;;10.3;94.87402;921.3992;;;;
2023/10/21 06:31:56;;;;;;;2.4;2;;;;;;;10.46;94.73633;921.4389;;;;
2023/10/21 06:34:21;;;;;;;1.6;1.5;;;;;;;10.58;94.50391;921.5051;;;;
2023/10/21 06:36:49;;;;;;;4;2.4;;;;;;;10.76;95.40918;921.62;;;;
2023/10/21 06:39:14;;;;;;;3.5;2.2;;;;;;;11.06;95.8291;921.5616;;;;
2023/10/21 06:41:43;;;;;;;4.3;2.3;;;;;;;11.35;94.88672;921.6476;;;;
2023/10/21 06:44:08;;;;;;;3.3;2;;;;;;;11.47;92.33789;921.7053;;;;
2023/10/21 06:46:35;;;;;;;3.4;2;;;;;;;11.47;92.22559;921.7507;;;;
2023/10/21 06:49:01;;;;;;;2.4;1.9;;;;;;;11.46;92.46387;921.7484;;;;
2023/10/21 06:51:28;;;;;;;2.3;1.6;;;;;;;11.62;91.76563;921.7341;;;;
2023/10/21 06:53:53;;;;;;;2.2;1.8;;;;;;;11.8;91.17285;921.7793;;;;
2023/10/21 06:56:20;;;;;;;1.6;1.3;;;;;;;11.86;90.33789;921.8875;;;;
2023/10/21 06:58:47;;;;;;;1.7;1.5;;;;;;;12.06;90.2998;921.9128;;;;
2023/10/21 07:01:11;;;;;;;1.3;1.2;;;;;;;12.05;90.38965;921.9585;;;;
2023/10/21 07:03:36;;;;;;;1.3;1.2;;;;;;;12.16;91.51172;921.9695;;;;
2023/10/21 07:06:01;;;;;;;1.7;1.5;;;;;;;12.42;91.38379;921.9952;;;;
2023/10/21 07:08:29;;;;;;;1.2;1;;;;;;;12.74;89.64844;922.0108;;;;
2023/10/21 07:10:55;;;;;;;1;0.9;;;;;;;13.03;87.36523;922.063;;;;
2023/10/21 07:13:20;;;;;;;1.8;1;;;;;;;13.16;86.06055;922.1042;;;;
2023/10/21 07:15:51;;;;;;;1.4;1.2;;;;;;;13.39;83.9668;922.1323;;;;
2023/10/21 07:18:14;;;;;;;1;0.9;;;;;;;13.54;83.45605;922.1613;;;;
2023/10/21 07:20:44;;;;;;;1.7;1.2;;;;;;;13.69;84.53223;922.2043;;;;
2023/10/21 07:23:14;;;;;;;2.7;1.6;;;;;;;13.79;82.41211;922.1624;;;;
2023/10/21 07:25:38;;;;;;;3.1;1.5;;;;;;;13.89;82.1543;922.2102;;;;
2023/10/21 07:28:05;;;;;;;3.2;1.4;;;;;;;14.27;82.21484;922.2811;;;;
2023/10/21 07:30:30;;;;;;;2.7;1.6;;;;;;;14.41;81.75586;922.2977;;;;
2023/10/21 07:33:00;;;;;;;1.2;1.1;;;;;;;14.54;80.9043;922.2999;;;;
2023/10/21 07:35:33;;;;;;;1.5;1.2;;;;;;;14.39;80.34766;922.343;;;;
2023/10/21 07:38:07;;;;;;;0.7;0.7;;;;;;;14.58;81.30469;922.3439;;;;
2023/10/21 07:40:32;;;;;;;0.8;0.8;;;;;;;14.7;79.875;922.3412;;;;
2023/10/21 07:42:57;;;;;;;0.7;0.7;;;;;;;14.96;79.17188;922.2852;;;;
2023/10/21 07:45:28;;;;;;;0.8;0.8;;;;;;;15.18;77.20508;922.2957;;;;
2023/10/21 07:47:52;;;;;;;1;0.9;;;;;;;15.4;75.9502;922.3566;;;;
2023/10/21 07:50:29;;;;;;;1.5;1;;;;;;;15.56;75.50293;922.4035;;;;
2023/10/21 07:52:58;;;;;;;1.7;1.2;;;;;;;15.9;73.29785;922.3517;;;;
2023/10/21 07:55:21;;;;;;;1.1;1;;;;;;;16.16;72.26465;922.48;;;;
2023/10/21 07:57:50;;;;;;;1.5;1.3;;;;;;;16.18;70.52148;922.4762;;;;
2023/10/21 08:00:23;;;;;;;1.4;1;;;;;;;15.84;70.72168;922.432;;;;
2023/10/21 08:02:45;;;;;;;1;1;;;;;;;15.31;72.9541;922.4769;;;;
2023/10/21 08:05:18;;;;;;;1.2;1.1;;;;;;;15.15;75.79102;922.4803;;;;
2023/10/21 08:07:43;;;;;;;0.9;0.8;;;;;;;15.41;74.94531;922.4711;;;;
2023/10/21 08:10:12;;;;;;;1.5;0.9;;;;;;;15.86;72.79395;922.4467;;;;
2023/10/21 08:12:43;;;;;;;1.6;0.7;;;;;;;16.11;72.44238;922.4683;;;;
2023/10/21 08:15:10;;;;;;;1;0.8;;;;;;;16.46;70.72949;922.5229;;;;
2023/10/21 08:17:36;;;;;;;0.8;0.7;;;;;;;16.35;70.9541;922.5253;;;;
2023/10/21 08:20:01;;;;;;;1.6;0.9;;;;;;;16.52;69.37305;922.5784;;;;
2023/10/21 08:22:26;;;;;;;1.1;0.7;;;;;;;16.51;69.63574;922.5397;;;;
2023/10/21 08:24:56;;;;;;;0.8;0.6;;;;;;;17.17;68.69922;922.6189;;;;
2023/10/21 08:27:25;;;;;;;0.8;0.5;;;;;;;17.66;66.83691;922.5681;;;;
2023/10/21 08:29:50;;;;;;;0.7;0.6;;;;;;;17.64;66.88086;922.6131;;;;
2023/10/21 08:32:15;;;;;;;0.4;0.4;;;;;;;17.74;66.01367;922.5375;;;;
2023/10/21 08:34:40;;;;;;;1.2;0.7;;;;;;;18.06;65.2959;922.5383;;;;
2023/10/21 08:37:08;;;;;;;0.5;0.5;;;;;;;18.38;64.73828;922.5253;;;;
2023/10/21 08:39:34;;;;;;;0.6;0.5;;;;;;;18.07;64.6582;922.5477;;;;
2023/10/21 08:41:58;;;;;;;1;0.8;;;;;;;17.84;65.78418;922.548;;;;
2023/10/21 08:44:25;;;;;;;0.6;0.6;;;;;;;17.43;66.12988;922.5131;;;;
2023/10/21 08:46:51;;;;;;;0.7;0.6;;;;;;;17.11;67.42676;922.6398;;;;
2023/10/21 08:49:17;;;;;;;0.7;0.5;;;;;;;17.31;68.31445;922.608;;;;
2023/10/21 08:51:42;;;;;;;1;0.5;;;;;;;17.33;68.22559;922.5481;;;;
2023/10/21 08:54:09;;;;;;;0.4;0.4;;;;;;;17.47;67.44629;922.6047;;;;
2023/10/21 08:56:35;;;;;;;0.6;0.5;;;;;;;17.56;66.8916;922.5953;;;;
2023/10/21 08:59:03;;;;;;;0.5;0.5;;;;;;;17.44;66.33887;922.6365;;;;
2023/10/21 09:01:27;;;;;;;0.4;0.4;;;;;;;17.4;67.91211;922.5905;;;;
2023/10/21 09:03:54;;;;;;;1;0.4;;;;;;;17.2;66.07227;922.5308;;;;
2023/10/21 09:06:19;;;;;;;0.5;0.4;;;;;;;17.17;67.65527;922.6108;;;;
2023/10/21 09:08:44;;;;;;;0.6;0.6;;;;;;;16.92;68.50977;922.5339;;;;
2023/10/21 09:11:10;;;;;;;1;0.5;;;;;;;16.83;70.97363;922.5745;;;;
2023/10/21 09:13:37;;;;;;;0.4;0.4;;;;;;;16.83;70;922.5842;;;;
2023/10/21 09:16:04;;;;;;;1.3;0.6;;;;;;;16.99;71.68359;922.6203;;;;
2023/10/21 09:18:29;;;;;;;0.8;0.6;;;;;;;16.84;73.41895;922.6225;;;;
2023/10/21 09:20:54;;;;;;;0.9;0.5;;;;;;;17.05;70.70898;922.6206;;;;
2023/10/21 09:23:19;;;;;;;0.4;0.4;;;;;;;17.25;70.91602;922.5885;;;;
2023/10/21 09:25:44;;;;;;;0.3;0.3;;;;;;;17.23;68.60449;922.5533;;;;
2023/10/21 09:28:11;;;;;;;0.9;0.6;;;;;;;17.34;68.39941;922.6164;;;;
2023/10/21 09:30:36;;;;;;;0.3;0.3;;;;;;;17;70.6416;922.6505;;;;
2023/10/21 09:33:03;;;;;;;0.6;0.6;;;;;;;16.94;70.62012;922.6522;;;;
2023/10/21 09:35:27;;;;;;;0.4;0.4;;;;;;;16.69;70.78906;922.6415;;;;
2023/10/21 09:37:54;;;;;;;0.3;0.3;;;;;;;16.76;71.20605;922.6597;;;;
2023/10/21 09:40:19;;;;;;;0.5;0.4;;;;;;;16.76;70.56934;922.6886;;;;
2023/10/21 09:42:47;;;;;;;0.9;0.4;;;;;;;16.79;70.34375;922.6987;;;;
2023/10/21 09:45:09;;;;;;;0.5;0.5;;;;;;;17.06;69.15527;922.6549;;;;
2023/10/21 09:47:35;;;;;;;0.7;0.4;;;;;;;17.02;68.74609;922.6403;;;;
2023/10/21 09:50:00;;;;;;;0.3;0.3;;;;;;;17.13;69.19043;922.6562;;;;
2023/10/21 09:52:25;;;;;;;0.2;0.2;;;;;;;17.25;70.02344;922.6707;;;;
2023/10/21 09:54:50;;;;;;;0.3;0.3;;;;;;;17.39;68.47754;922.6398;;;;
2023/10/21 09:57:21;;;;;;;0.1;0.1;;;;;;;17.46;68.05957;922.5254;;;;
2023/10/21 09:59:49;;;;;;;2.8;0.7;;;;;;;17.79;65.96387;922.512;;;;
2023/10/21 10:02:14;;;;;;;1.1;0.3;;;;;;;17.7;65.12598;922.6044;;;;
2023/10/21 10:04:42;;;;;;;0.3;0.3;;;;;;;17.75;64.39063;922.5722;;;;
2023/10/21 10:07:08;;;;;;;0.4;0.4;;;;;;;17.92;64.64746;922.5812;;;;
2023/10/21 10:09:33;;;;;;;0.5;0.2;;;;;;;17.96;65.65234;922.545;;;;
2023/10/21 10:11:59;;;;;;;0.1;0.1;;;;;;;18.09;64.30078;922.6057;;;;
2023/10/21 10:14:26;;;;;;;0.3;0.3;;;;;;;18.39;63.2627;922.6054;;;;
2023/10/21 10:16:51;;;;;;;0.2;0.2;;;;;;;18.44;64.44531;922.6266;;;;
2023/10/21 10:19:16;;;;;;;0.3;0.2;;;;;;;18.25;64.73145;922.6158;;;;
2023/10/21 10:21:43;;;;;;;0.4;0.2;;;;;;;18.46;62.76074;922.5937;;;;
2023/10/21 10:24:16;;;;;;;0.2;0.2;;;;;;;18.4;63.81055;922.5969;;;;
2023/10/21 10:26:41;;;;;;;0.2;0.2;;;;;;;18.46;62.69043;922.6331;;;;
2023/10/21 10:29:06;;;;;;;0.2;0.2;;;;;;;18.61;64.06152;922.5602;;;;
2023/10/21 10:31:31;;;;;;;0.8;0.3;;;;;;;18.89;62.41504;922.5108;;;;
2023/10/21 10:34:00;;;;;;;0.2;0.2;;;;;;;18.81;61.88086;922.63;;;;
2023/10/21 10:36:27;;;;;;;0.3;0.3;;;;;;;18.81;63.87109;922.5383;;;;
2023/10/21 10:38:54;;;;;;;0.5;0.3;;;;;;;18.96;63.62402;922.5831;;;;
2023/10/21 10:41:18;;;;;;;0.2;0.2;;;;;;;19.1;62.66602;922.5411;;;;
2023/10/21 10:43:45;;;;;;;0.1;0.1;;;;;;;19.31;62.58008;922.5803;;;;
2023/10/21 10:46:10;;;;;;;1;0.3;;;;;;;19.26;63.5166;922.5228;;;;
2023/10/21 10:48:43;;;;;;;0.3;0.3;;;;;;;19.52;61.2002;922.4853;;;;
2023/10/21 10:51:15;;;;;;;0.2;0.2;;;;;;;19.42;61.83789;922.566;;;;
2023/10/21 10:53:48;;;;;;;0.9;0.4;;;;;;;19.15;62.42871;922.5555;;;;
2023/10/21 10:56:20;;;;;;;0.9;0.4;;;;;;;19.15;62.79004;922.5676;;;;
2023/10/21 10:58:46;;;;;;;0.3;0.3;;;;;;;19.43;61.19922;922.6188;;;;
2023/10/21 11:01:13;;;;;;;0.2;0.2;;;;;;;19.23;60.90332;922.5494;;;;
2023/10/21 11:03:38;;;;;;;0.6;0.4;;;;;;;18.73;63.06836;922.5106;;;;
2023/10/21 11:06:06;;;;;;;0.2;0.2;;;;;;;18.43;63.62891;922.5723;;;;
2023/10/21 11:08:32;;;;;;;0.9;0.3;;;;;;;18.12;63.31836;922.5486;;;;
2023/10/21 11:10:57;;;;;;;0.3;0.3;;;;;;;18.16;62.98633;922.5275;;;;
2023/10/21 11:13:24;;;;;;;0.3;0.3;;;;;;;18.46;61.45996;922.5603;;;;
2023/10/21 11:15:54;;;;;;;0.3;0.3;;;;;;;18.71;60.57422;922.5187;;;;
2023/10/21 11:18:15;;;;;;;0.3;0.2;;;;;;;18.83;60.88281;922.5125;;;;
2023/10/21 11:20:39;;;;;;;1;0.3;;;;;;;19.1;60.75586;922.5298;;;;
2023/10/21 11:23:05;;;;;;;0.2;0.2;;;;;;;19.27;60.78125;922.5403;;;;
2023/10/21 11:25:30;;;;;;;0.3;0.3;;;;;;;19.39;59.72559;922.5159;;;;
2023/10/21 11:27:59;;;;;;;1;0.2;;;;;;;19.79;58.36816;922.4503;;;;
2023/10/21 11:30:25;;;;;;;0.5;0.2;;;;;;;19.4;59.58691;922.4498;;;;
2023/10/21 11:32:51;;;;;;;0.5;0.3;;;;;;;19.71;57.98535;922.4423;;;;
2023/10/21 11:35:15;;;;;;;0.3;0.2;;;;;;;20.08;56.41211;922.4369;;;;
2023/10/21 11:37:43;;;;;;;0.5;0.3;;;;;;;20.52;55.26367;922.516;;;;
2023/10/21 11:40:09;;;;;;;0.4;0.3;;;;;;;20.87;54.11523;922.4272;;;;
2023/10/21 11:42:39;;;;;;;0.2;0.2;;;;;;;22.43;50.11816;922.3879;;;;
2023/10/21 11:45:09;;;;;;;0.8;0.2;;;;;;;22.83;48.50586;922.345;;;;
2023/10/21 11:47:39;;;;;;;0.3;0.1;;;;;;;23.41;46.03027;922.4097;;;;
2023/10/21 11:50:09;;;;;;;0.3;0.3;;;;;;;24.24;45.96289;922.3419;;;;
2023/10/21 11:52:42;;;;;;;0.3;0.3;;;;;;;25.18;42.7666;922.3209;;;;
2023/10/21 11:55:37;;;;;;;0.1;0.1;;;;;;;26.55;40.39844;922.3777;;;;
2023/10/21 12:05:34;;;;;;;1.4;0.2;;;;;;;25.77;41.72363;922.2209;;;;
2023/10/21 12:08:12;;;;;;;0.2;0.2;;;;;;;26.03;41.42871;922.1661;;;;
2023/10/21 12:13:20;;;;;;;0.2;0.2;;;;;;;24.54;44.24902;922.1667;;;;
2023/10/21 12:15:06;;;;;;;0.4;0.4;;;;;;;23.83;45.61426;922.1445;;;;
2023/10/21 12:17:26;;;;;;;0.2;0.2;;;;;;;23.02;49.41992;922.1763;;;;
2023/10/21 12:24:59;;;;;;;0.2;0.2;;;;;;;23.61;47.80469;922.2285;;;;
2023/10/21 12:27:33;;;;;;;0.3;0.2;;;;;;;23.76;46.25488;922.3133;;;;
2023/10/21 12:30:12;;;;;;;0.3;0.3;;;;;;;24.79;44.74609;922.3484;;;;
2023/10/21 12:31:51;;;;;;;0.2;0.2;;;;;;;24.63;44.87109;922.3036;;;;
2023/10/21 12:36:35;;;;;;;0.3;0.2;;;;;;;22.19;49.84473;922.3293;;;;
2023/10/21 12:39:19;;;;;;;0.2;0.2;;;;;;;21.45;53.75293;922.4238;;;;
2023/10/21 12:41:25;;;;;;;0.5;0.3;;;;;;;21.01;54.63477;922.4047;;;;
2023/10/21 12:43:49;;;;;;;0.1;0.1;;;;;;;21.91;51.41797;922.3592;;;;
2023/10/21 12:46:18;;;;;;;0.5;0.3;;;;;;;21.91;51.14746;922.4075;;;;
2023/10/21 12:48:45;;;;;;;0.1;0.1;;;;;;;22.7;50.28906;922.3229;;;;
2023/10/21 12:51:15;;;;;;;0.2;0.2;;;;;;;25.48;43.76465;922.4033;;;;
2023/10/21 12:53:37;;;;;;;0.2;0.2;;;;;;;25.58;42.17871;922.4647;;;;
2023/10/21 12:56:06;;;;;;;0.2;0.2;;;;;;;24.16;44.76563;922.4185;;;;
2023/10/21 12:58:29;;;;;;;0.2;0.2;;;;;;;23.69;47.16406;922.4883;;;;
2023/10/21 13:00:57;;;;;;;0.2;0.2;;;;;;;23.91;45.41211;922.5098;;;;
2023/10/21 13:03:22;;;;;;;0.3;0.3;;;;;;;22.04;50.36719;922.6;;;;
2023/10/21 13:05:52;;;;;;;0.2;0.2;;;;;;;20.9;53.74414;922.5;;;;
2023/10/21 13:08:14;;;;;;;0.2;0.2;;;;;;;20.2;55.43457;922.6057;;;;
2023/10/21 13:10:42;;;;;;;0.2;0.2;;;;;;;19.95;56.11328;922.551;;;;
2023/10/21 13:13:06;;;;;;;0.1;0.1;;;;;;;19.77;56.55762;922.6323;;;;
2023/10/21 13:15:36;;;;;;;0.2;0.2;;;;;;;19.65;57.95313;922.6556;;;;
2023/10/21 13:18:03;;;;;;;0.1;0.1;;;;;;;19.35;58.6709;922.7148;;;;
2023/10/21 13:20:24;;;;;;;0.2;0.2;;;;;;;19.21;58.80371;922.7019;;;;
2023/10/21 13:22:53;;;;;;;0.2;0.2;;;;;;;18.96;59.46973;922.6013;;;;
2023/10/21 13:25:18;;;;;;;0.3;0.3;;;;;;;18.64;61.07617;922.6689;;;;
2023/10/21 13:27:45;;;;;;;0.2;0.2;;;;;;;18.55;61.01953;922.6544;;;;
2023/10/21 13:30:13;;;;;;;0.2;0.2;;;;;;;18.48;60.96191;922.5692;;;;
2023/10/21 13:32:36;;;;;;;0.1;0.1;;;;;;;18.31;62.10156;922.6917;;;;
2023/10/21 13:35:09;;;;;;;0.2;0.2;;;;;;;18.33;62.38184;922.7433;;;;
2023/10/21 13:37:29;;;;;;;0.1;0.1;;;;;;;18.24;63.16113;922.7739;;;;
2023/10/21 13:39:55;;;;;;;0.2;0.2;;;;;;;18.11;64.58203;922.8175;;;;
2023/10/21 13:42:19;;;;;;;0.3;0.3;;;;;;;17.96;65.10645;922.7996;;;;
2023/10/21 13:44:46;;;;;;;0.2;0.2;;;;;;;17.83;65.89941;922.8488;;;;
2023/10/21 13:47:13;;;;;;;0.2;0.2;;;;;;;17.65;67.35742;922.9372;;;;
2023/10/21 13:49:41;;;;;;;0.4;0.2;;;;;;;17.48;67.53027;922.9534;;;;
2023/10/21 13:52:06;;;;;;;0.2;0.2;;;;;;;17.35;67.30078;922.9764;;;;
2023/10/21 13:54:35;;;;;;;0.3;0.3;;;;;;;17.27;68.02051;922.9802;;;;
2023/10/21 13:57:03;;;;;;;0.2;0.2;;;;;;;17.18;67.81934;923.0006;;;;
2023/10/21 13:59:25;;;;;;;1;0.2;;;;;;;17.11;68.05273;923.0757;;;;
2023/10/21 14:01:55;;;;;;;0.2;0.2;;;;;;;17.07;68.03418;923.0628;;;;
2023/10/21 14:04:25;;;;;;;0.6;0.3;;;;;;;17.14;67.82422;923.1592;;;;
2023/10/21 14:06:49;;;;;;;0.2;0.2;;;;;;;17.19;67.48438;923.1039;;;;
2023/10/21 14:09:24;;;;;;;0.5;0.3;;;;;;;16.97;68.34375;923.1776;;;;
2023/10/21 14:11:44;;;;;;;0.3;0.3;;;;;;;16.95;68.25781;923.2349;;;;
2023/10/21 14:14:10;;;;;;;0.3;0.2;;;;;;;16.88;68.94141;923.2656;;;;
2023/10/21 14:16:34;;;;;;;0.4;0.4;;;;;;;16.9;69.1084;923.3122;;;;
2023/10/21 14:19:03;;;;;;;0.3;0.3;;;;;;;16.96;68.74707;923.3572;;;;
2023/10/21 14:21:28;;;;;;;0.8;0.7;;;;;;;16.98;68.99316;923.395;;;;
2023/10/21 14:24:02;;;;;;;0.4;0.4;;;;;;;16.84;69.42285;923.4827;;;;
2023/10/21 14:26:27;;;;;;;0.4;0.4;;;;;;;16.86;69.40234;923.5164;;;;
2023/10/21 14:28:55;;;;;;;1.1;0.6;;;;;;;16.9;69.14258;923.5254;;;;
2023/10/21 14:31:17;;;;;;;0.6;0.5;;;;;;;16.79;69.1377;923.4883;;;;
2023/10/21 14:33:45;;;;;;;0.4;0.4;;;;;;;16.75;69.0498;923.5284;;;;
2023/10/21 14:36:11;;;;;;;0.8;0.4;;;;;;;16.81;69.05762;923.5399;;;;
2023/10/21 14:38:38;;;;;;;0.3;0.3;;;;;;;16.88;69.06934;923.6008;;;;
2023/10/21 14:41:03;;;;;;;0.4;0.4;;;;;;;16.91;68.63281;923.5983;;;;
2023/10/21 14:43:33;;;;;;;0.3;0.3;;;;;;;16.77;68.78711;923.5952;;;;
2023/10/21 14:45:57;;;;;;;0.4;0.4;;;;;;;16.75;68.93359;923.5693;;;;
2023/10/21 14:48:27;;;;;;;0.3;0.3;;;;;;;16.77;68.90332;923.6078;;;;
2023/10/21 14:50:52;;;;;;;0.4;0.4;;;;;;;16.63;69.37793;923.5904;;;;
2023/10/21 14:53:19;;;;;;;0.4;0.4;;;;;;;16.51;69.93945;923.5558;;;;
2023/10/21 14:55:45;;;;;;;0.6;0.5;;;;;;;16.5;69.68066;923.5959;;;;
2023/10/21 14:58:13;;;;;;;0.4;0.4;;;;;;;16.46;70.03418;923.5933;;;;
2023/10/21 15:00:37;;;;;;;0.3;0.3;;;;;;;16.38;70.55371;923.6683;;;;
2023/10/21 15:03:11;;;;;;;0.3;0.3;;;;;;;16.31;70.87695;923.6724;;;;
2023/10/21 15:05:34;;;;;;;0.6;0.6;;;;;;;16.34;71.38086;923.7227;;;;
2023/10/21 15:08:02;;;;;;;0.4;0.4;;;;;;;16.26;72.0166;923.7004;;;;
2023/10/21 15:10:27;;;;;;;1.4;0.9;;;;;;;16.25;72.5459;923.7242;;;;
2023/10/21 15:12:57;;;;;;;1.1;0.9;;;;;;;16.2;72.96484;923.7507;;;;
2023/10/21 15:15:22;;;;;;;1;0.9;;;;;;;16.1;73.3418;923.7847;;;;
2023/10/21 15:17:47;;;;;;;0.8;0.6;;;;;;;16.09;73.49023;923.7731;;;;
2023/10/21 15:20:17;;;;;;;0.6;0.5;;;;;;;16.16;73.59473;923.8492;;;;
2023/10/21 15:22:43;;;;;;;0.9;0.7;;;;;;;16.18;73.32031;923.9128;;;;
2023/10/21 15:25:08;;;;;;;0.6;0.6;;;;;;;16.2;73.11719;923.932;;;;
2023/10/21 15:27:32;;;;;;;0.9;0.6;;;;;;;15.88;74.49609;924.0313;;;;
2023/10/21 15:30:01;;;;;;;1.1;0.5;;;;;;;15.92;74.17969;923.9984;;;;
2023/10/21 15:32:27;;;;;;;0.8;0.6;;;;;;;15.87;74.39063;924.1005;;;;
2023/10/21 15:34:52;;;;;;;1;0.8;;;;;;;15.92;73.45117;924.1149;;;;
2023/10/21 15:37:22;;;;;;;0.5;0.5;;;;;;;15.82;73.41211;924.1752;;;;
2023/10/21 15:39:46;;;;;;;0.7;0.5;;;;;;;15.83;73.21484;924.2336;;;;
2023/10/21 15:42:15;;;;;;;0.7;0.6;;;;;;;15.83;73.15723;924.2561;;;;
2023/10/21 15:44:40;;;;;;;0.6;0.6;;;;;;;15.79;73.15137;924.3116;;;;
2023/10/21 15:47:06;;;;;;;0.5;0.5;;;;;;;15.75;73.52637;924.3425;;;;
2023/10/21 15:49:34;;;;;;;0.7;0.5;;;;;;;15.78;74.15527;924.3608;;;;